createdAt,value
2017-09-20T00:00:54.514Z,29.80
2017-09-20T00:01:54.491Z,32.90
2017-09-20T00:02:54.444Z,30.70
2017-09-20T00:03:54.408Z,33.20
2017-09-20T00:04:54.370Z,30.10
2017-09-20T00:05:54.334Z,30.90
2017-09-20T00:06:54.297Z,28.90
2017-09-20T00:07:54.270Z,29.70
2017-09-20T00:08:54.229Z,28.70
2017-09-20T00:09:54.188Z,28.30
2017-09-20T00:10:54.153Z,29.90
2017-09-20T00:11:54.117Z,29.20
2017-09-20T00:12:54.079Z,28.60
2017-09-20T00:13:54.044Z,29.20
2017-09-20T00:14:54.009Z,30.40
2017-09-20T00:15:53.970Z,31.80
2017-09-20T00:16:53.939Z,30.50
2017-09-20T00:17:53.907Z,29.50
2017-09-20T00:18:53.862Z,29.10
2017-09-20T00:19:53.830Z,30.90
2017-09-20T00:20:53.799Z,32.20
2017-09-20T00:21:53.785Z,32.40
2017-09-20T00:22:53.717Z,28.00
2017-09-20T00:23:53.680Z,31.20
2017-09-20T00:24:53.642Z,29.00
2017-09-20T00:25:53.610Z,30.90
2017-09-20T00:26:53.586Z,29.20
2017-09-20T00:27:53.538Z,29.50
2017-09-20T00:28:53.500Z,27.90
2017-09-20T00:29:53.469Z,32.20
2017-09-20T00:30:53.434Z,33.00
2017-09-20T00:31:53.391Z,30.30
2017-09-20T00:32:53.363Z,28.80
2017-09-20T00:33:53.318Z,31.80
2017-09-20T00:34:53.285Z,29.30
2017-09-20T00:35:53.252Z,33.70
2017-09-20T00:36:53.210Z,31.60
2017-09-20T00:37:53.171Z,31.70
2017-09-20T00:38:53.137Z,32.10
2017-09-20T00:39:53.103Z,31.60
2017-09-20T00:40:53.064Z,31.70
2017-09-20T00:41:53.027Z,37.20
2017-09-20T00:42:52.992Z,32.80
2017-09-20T00:43:52.960Z,34.10
2017-09-20T00:44:52.920Z,31.30
2017-09-20T00:45:52.881Z,32.30
2017-09-20T00:46:52.852Z,37.80
2017-09-20T00:47:52.808Z,35.80
2017-09-20T00:48:52.772Z,32.60
2017-09-20T00:49:52.733Z,36.00
2017-09-20T00:50:52.706Z,32.40
2017-09-20T00:51:52.661Z,36.10
2017-09-20T00:52:52.627Z,34.00
2017-09-20T00:53:52.589Z,35.40
2017-09-20T00:54:52.573Z,37.80
2017-09-20T00:55:52.527Z,36.60
2017-09-20T00:56:52.485Z,36.60
2017-09-20T00:57:52.445Z,35.70
2017-09-20T00:58:52.407Z,36.80
2017-09-20T00:59:52.370Z,35.90
2017-09-20T01:00:52.335Z,35.10
2017-09-20T01:01:52.311Z,36.30
2017-09-20T01:02:52.261Z,38.10
2017-09-20T01:03:52.235Z,38.90
2017-09-20T01:04:52.194Z,36.10
2017-09-20T01:05:52.152Z,39.00
2017-09-20T01:06:52.114Z,38.90
2017-09-20T01:07:52.080Z,35.00
2017-09-20T01:08:52.045Z,38.80
2017-09-20T01:09:52.007Z,38.30
2017-09-20T01:10:51.970Z,38.60
2017-09-20T01:11:51.933Z,39.00
2017-09-20T01:12:51.899Z,38.70
2017-09-20T01:13:51.859Z,36.20
2017-09-20T01:14:51.821Z,38.40
2017-09-20T01:15:51.789Z,40.40
2017-09-20T01:16:51.759Z,40.00
2017-09-20T01:17:51.714Z,41.30
2017-09-20T01:18:51.683Z,39.10
2017-09-20T01:19:51.641Z,43.20
2017-09-20T01:20:51.610Z,41.90
2017-09-20T01:21:51.568Z,44.30
2017-09-20T01:22:51.534Z,44.70
2017-09-20T01:23:51.508Z,43.20
2017-09-20T01:24:51.459Z,49.60
2017-09-20T01:25:51.430Z,48.40
2017-09-20T01:26:51.389Z,49.80
2017-09-20T01:27:51.351Z,50.80
2017-09-20T01:28:51.314Z,48.90
2017-09-20T01:29:51.273Z,50.40
2017-09-20T01:30:51.240Z,46.70
2017-09-20T01:31:51.204Z,45.50
2017-09-20T01:32:51.168Z,49.50
2017-09-20T01:33:51.131Z,49.40
2017-09-20T01:34:51.100Z,47.80
2017-09-20T01:35:51.056Z,51.50
2017-09-20T01:36:51.032Z,50.20
2017-09-20T01:37:50.983Z,47.70
2017-09-20T01:38:50.945Z,49.60
2017-09-20T01:39:50.908Z,50.80
2017-09-20T01:40:50.875Z,50.10
2017-09-20T01:41:50.842Z,54.60
2017-09-20T01:42:50.801Z,52.70
2017-09-20T01:43:50.773Z,55.80
2017-09-20T01:44:50.727Z,51.00
2017-09-20T01:45:50.696Z,54.70
2017-09-20T01:46:50.652Z,53.90
2017-09-20T01:47:50.616Z,62.80
2017-09-20T01:48:50.580Z,57.00
2017-09-20T01:49:50.542Z,60.10
2017-09-20T01:50:50.513Z,59.20
2017-09-20T01:51:50.474Z,61.00
2017-09-20T01:52:50.437Z,66.80
2017-09-20T01:53:50.396Z,65.70
2017-09-20T01:54:50.373Z,65.30
2017-09-20T01:55:50.323Z,62.60
2017-09-20T01:56:50.286Z,67.10
2017-09-20T01:57:50.249Z,64.30
2017-09-20T01:58:50.216Z,65.80
2017-09-20T01:59:50.188Z,63.80
2017-09-20T02:00:50.149Z,61.90
2017-09-20T02:01:50.104Z,60.40
2017-09-20T02:02:50.070Z,64.00
2017-09-20T02:03:50.033Z,65.40
2017-09-20T02:04:49.993Z,71.10
2017-09-20T02:05:49.957Z,65.00
2017-09-20T02:06:49.920Z,63.30
2017-09-20T02:07:49.894Z,61.50
2017-09-20T02:08:49.849Z,59.60
2017-09-20T02:09:49.812Z,59.30
2017-09-20T02:10:49.776Z,61.30
2017-09-20T02:11:49.738Z,58.10
2017-09-20T02:12:49.702Z,59.10
2017-09-20T02:13:49.666Z,61.00
2017-09-20T02:14:49.640Z,56.90
2017-09-20T02:15:49.588Z,57.20
2017-09-20T02:16:49.556Z,52.60
2017-09-20T02:17:49.525Z,50.70
2017-09-20T02:18:49.483Z,55.90
2017-09-20T02:19:49.444Z,53.80
2017-09-20T02:20:49.414Z,59.60
2017-09-20T02:21:49.375Z,53.90
2017-09-20T02:22:49.332Z,56.30
2017-09-20T02:23:49.297Z,55.30
2017-09-20T02:24:49.261Z,59.40
2017-09-20T02:25:49.228Z,57.60
2017-09-20T02:26:49.187Z,57.80
2017-09-20T02:27:49.155Z,58.60
2017-09-20T02:28:49.116Z,58.70
2017-09-20T02:29:49.082Z,57.30
2017-09-20T02:30:49.058Z,61.50
2017-09-20T02:31:49.008Z,59.80
2017-09-20T02:32:48.966Z,65.50
2017-09-20T02:33:48.930Z,67.80
2017-09-20T02:34:48.892Z,71.20
2017-09-20T02:35:48.862Z,65.70
2017-09-20T02:36:48.821Z,65.10
2017-09-20T02:37:48.784Z,70.90
2017-09-20T02:38:48.752Z,66.30
2017-09-20T02:39:48.713Z,76.90
2017-09-20T02:40:48.678Z,74.40
2017-09-20T02:41:48.637Z,93.80
2017-09-20T02:42:48.601Z,84.40
2017-09-20T02:43:48.560Z,110.40
2017-09-20T02:44:48.525Z,97.80
2017-09-20T02:45:48.494Z,87.30
2017-09-20T02:46:48.478Z,79.50
2017-09-20T02:47:48.416Z,88.10
2017-09-20T02:48:48.378Z,91.60
2017-09-20T02:49:48.341Z,75.60
2017-09-20T02:50:48.304Z,68.10
2017-09-20T02:51:48.270Z,64.00
2017-09-20T02:52:48.233Z,68.30
2017-09-20T02:53:48.192Z,69.50
2017-09-20T02:54:48.156Z,69.10
2017-09-20T02:55:48.120Z,76.80
2017-09-20T02:56:48.083Z,77.80
2017-09-20T02:57:48.050Z,71.70
2017-09-20T02:58:48.013Z,75.00
2017-09-20T02:59:47.974Z,75.90
2017-09-20T03:00:47.936Z,75.10
2017-09-20T03:01:47.899Z,75.40
2017-09-20T03:02:47.862Z,77.90
2017-09-20T03:03:47.827Z,74.60
2017-09-20T03:04:47.808Z,76.80
2017-09-20T03:05:47.772Z,79.40
2017-09-20T03:06:47.716Z,80.10
2017-09-20T03:07:47.679Z,78.10
2017-09-20T03:08:47.657Z,79.60
2017-09-20T03:09:47.605Z,73.70
2017-09-20T03:10:47.580Z,75.80
2017-09-20T03:11:47.532Z,71.20
2017-09-20T03:12:47.506Z,74.40
2017-09-20T03:13:47.470Z,68.20
2017-09-20T03:14:47.427Z,65.70
2017-09-20T03:15:47.391Z,65.20
2017-09-20T03:16:47.349Z,61.30
2017-09-20T03:17:47.316Z,61.20
2017-09-20T03:18:47.288Z,62.20
2017-09-20T03:19:47.241Z,59.50
2017-09-20T03:20:47.202Z,59.60
2017-09-20T03:21:47.171Z,54.90
2017-09-20T03:22:47.129Z,55.90
2017-09-20T03:23:47.090Z,57.90
2017-09-20T03:24:47.059Z,57.80
2017-09-20T03:25:47.031Z,53.30
2017-09-20T03:26:46.984Z,52.70
2017-09-20T03:27:46.943Z,47.00
2017-09-20T03:28:46.906Z,47.90
2017-09-20T03:29:46.873Z,50.10
2017-09-20T03:30:46.829Z,49.00
2017-09-20T03:31:46.795Z,48.90
2017-09-20T03:32:46.769Z,51.00
2017-09-20T03:33:46.723Z,47.20
2017-09-20T03:34:46.694Z,47.10
2017-09-20T03:35:46.683Z,46.00
2017-09-20T03:36:46.612Z,47.10
2017-09-20T03:37:46.578Z,48.30
2017-09-20T03:38:46.537Z,42.40
2017-09-20T03:39:46.507Z,48.80
2017-09-20T03:40:46.463Z,46.60
2017-09-20T03:41:46.430Z,47.10
2017-09-20T03:42:46.394Z,44.30
2017-09-20T03:43:46.355Z,47.10
2017-09-20T03:44:46.327Z,46.40
2017-09-20T03:45:46.282Z,43.50
2017-09-20T03:46:46.248Z,44.80
2017-09-20T03:47:46.210Z,44.40
2017-09-20T03:48:46.173Z,49.10
2017-09-20T03:49:46.134Z,48.40
2017-09-20T03:50:46.103Z,47.30
2017-09-20T03:51:46.070Z,42.60
2017-09-20T03:52:46.035Z,44.70
2017-09-20T03:53:45.990Z,51.80
2017-09-20T03:54:45.954Z,53.50
2017-09-20T03:55:45.926Z,47.90
2017-09-20T03:56:45.885Z,44.60
2017-09-20T03:57:45.847Z,42.90
2017-09-20T03:58:45.806Z,44.60
2017-09-20T03:59:45.777Z,46.00
2017-09-20T04:00:45.735Z,48.00
2017-09-20T04:01:45.699Z,43.60
2017-09-20T04:02:45.662Z,45.80
2017-09-20T04:03:45.631Z,43.60
2017-09-20T04:04:45.588Z,47.40
2017-09-20T04:05:45.550Z,41.60
2017-09-20T04:06:45.522Z,43.20
2017-09-20T04:07:45.481Z,43.30
2017-09-20T04:08:45.444Z,46.40
2017-09-20T04:09:45.407Z,46.50
2017-09-20T04:10:45.371Z,44.90
2017-09-20T04:11:45.343Z,43.20
2017-09-20T04:12:45.302Z,45.90
2017-09-20T04:13:45.262Z,48.10
2017-09-20T04:14:45.226Z,45.50
2017-09-20T04:15:45.188Z,48.50
2017-09-20T04:16:45.154Z,48.20
2017-09-20T04:17:45.115Z,45.10
2017-09-20T04:18:45.081Z,43.90
2017-09-20T04:19:45.044Z,46.40
2017-09-20T04:20:45.007Z,44.20
2017-09-20T04:21:44.975Z,46.80
2017-09-20T04:22:44.962Z,49.60
2017-09-20T04:23:44.935Z,47.20
2017-09-20T04:24:44.861Z,48.20
2017-09-20T04:25:44.835Z,50.90
2017-09-20T04:26:44.806Z,51.00
2017-09-20T04:27:44.751Z,53.40
2017-09-20T04:28:47.410Z,64.30
2017-09-20T04:29:44.679Z,71.50
2017-09-20T04:30:44.645Z,64.00
2017-09-20T04:31:44.620Z,56.80
2017-09-20T04:32:44.573Z,50.10
2017-09-20T04:33:44.536Z,56.60
2017-09-20T04:34:44.505Z,51.50
2017-09-20T04:35:44.463Z,60.40
2017-09-20T04:36:44.426Z,53.10
2017-09-20T04:37:44.389Z,53.60
2017-09-20T04:38:44.354Z,54.40
2017-09-20T04:39:44.325Z,61.10
2017-09-20T04:40:44.303Z,57.00
2017-09-20T04:41:44.246Z,56.60
2017-09-20T04:42:44.208Z,55.30
2017-09-20T04:43:44.168Z,58.70
2017-09-20T04:44:44.140Z,56.20
2017-09-20T04:45:44.098Z,55.70
2017-09-20T04:46:44.069Z,61.50
2017-09-20T04:47:44.030Z,59.80
2017-09-20T04:48:43.991Z,59.00
2017-09-20T04:49:43.954Z,58.50
2017-09-20T04:50:43.924Z,71.10
2017-09-20T04:51:43.886Z,60.00
2017-09-20T04:52:43.847Z,58.40
2017-09-20T04:53:43.814Z,60.20
2017-09-20T04:54:43.774Z,61.90
2017-09-20T04:55:43.744Z,60.80
2017-09-20T04:56:43.703Z,60.90
2017-09-20T04:57:43.665Z,60.60
2017-09-20T04:58:43.629Z,62.00
2017-09-20T04:59:43.601Z,62.90
2017-09-20T05:00:43.557Z,61.60
2017-09-20T05:01:43.524Z,60.00
2017-09-20T05:02:43.486Z,58.90
2017-09-20T05:03:43.455Z,60.10
2017-09-20T05:04:43.413Z,58.60
2017-09-20T05:05:43.377Z,60.00
2017-09-20T05:06:43.340Z,58.80
2017-09-20T05:07:43.311Z,58.40
2017-09-20T05:08:43.273Z,64.60
2017-09-20T05:09:43.236Z,62.70
2017-09-20T05:10:43.199Z,60.90
2017-09-20T05:11:43.158Z,62.50
2017-09-20T05:12:43.131Z,63.40
2017-09-20T05:13:43.084Z,64.10
2017-09-20T05:14:43.050Z,63.00
2017-09-20T05:15:43.013Z,65.20
2017-09-20T05:16:42.986Z,60.10
2017-09-20T05:17:42.954Z,61.20
2017-09-20T05:18:42.914Z,59.40
2017-09-20T05:19:42.879Z,62.90
2017-09-20T05:20:42.839Z,91.70
2017-09-20T05:21:42.803Z,72.80
2017-09-20T05:22:42.771Z,63.90
2017-09-20T05:23:42.727Z,65.80
2017-09-20T05:24:42.698Z,69.40
2017-09-20T05:25:42.653Z,62.80
2017-09-20T05:26:42.619Z,67.20
2017-09-20T05:27:42.583Z,64.50
2017-09-20T05:28:42.547Z,59.80
2017-09-20T05:29:42.520Z,71.00
2017-09-20T05:30:42.481Z,60.60
2017-09-20T05:31:42.438Z,56.80
2017-09-20T05:32:42.404Z,55.70
2017-09-20T05:33:42.367Z,61.50
2017-09-20T05:34:42.354Z,55.50
2017-09-20T05:35:42.296Z,57.80
2017-09-20T05:36:42.277Z,55.30
2017-09-20T05:37:42.238Z,56.40
2017-09-20T05:38:42.183Z,59.00
2017-09-20T05:39:42.149Z,59.20
2017-09-20T05:40:42.116Z,54.90
2017-09-20T05:41:42.078Z,56.80
2017-09-20T05:42:42.048Z,53.60
2017-09-20T05:43:42.005Z,53.40
2017-09-20T05:44:41.969Z,52.90
2017-09-20T05:45:41.931Z,55.40
2017-09-20T05:46:41.897Z,53.60
2017-09-20T05:47:41.868Z,55.30
2017-09-20T05:48:41.826Z,58.10
2017-09-20T05:49:41.794Z,53.80
2017-09-20T05:50:41.753Z,50.90
2017-09-20T05:51:41.715Z,55.00
2017-09-20T05:52:41.688Z,52.60
2017-09-20T05:53:41.651Z,50.10
2017-09-20T05:54:41.611Z,50.80
2017-09-20T05:55:41.574Z,53.00
2017-09-20T05:56:41.537Z,50.60
2017-09-20T05:57:41.507Z,52.20
2017-09-20T05:58:41.475Z,51.90
2017-09-20T05:59:41.431Z,53.30
2017-09-20T06:00:41.411Z,54.30
2017-09-20T06:01:41.363Z,55.00
2017-09-20T06:02:41.321Z,51.60
2017-09-20T06:03:41.307Z,52.70
2017-09-20T06:04:41.261Z,50.10
2017-09-20T06:05:41.215Z,49.00
2017-09-20T06:06:41.191Z,52.90
2017-09-20T06:07:41.143Z,54.20
2017-09-20T06:08:41.130Z,47.60
2017-09-20T06:09:41.074Z,54.90
2017-09-20T06:10:41.036Z,49.70
2017-09-20T06:11:41.001Z,46.90
2017-09-20T06:12:40.967Z,50.00
2017-09-20T06:13:40.932Z,48.00
2017-09-20T06:14:40.898Z,51.70
2017-09-20T06:15:40.859Z,46.00
2017-09-20T06:16:40.829Z,51.50
2017-09-20T06:17:40.794Z,49.80
2017-09-20T06:18:40.752Z,49.10
2017-09-20T06:19:40.730Z,46.30
2017-09-20T06:20:40.689Z,49.60
2017-09-20T06:21:40.643Z,47.30
2017-09-20T06:22:40.618Z,48.00
2017-09-20T06:23:40.581Z,51.60
2017-09-20T06:24:40.535Z,50.90
2017-09-20T06:25:40.539Z,51.10
2017-09-20T06:26:40.476Z,48.10
2017-09-20T06:27:40.434Z,52.20
2017-09-20T06:28:40.411Z,51.30
2017-09-20T06:29:40.378Z,52.00
2017-09-20T06:30:40.334Z,53.50
2017-09-20T06:31:40.289Z,52.30
2017-09-20T06:32:40.258Z,51.90
2017-09-20T06:33:40.220Z,48.70
2017-09-20T06:34:40.191Z,50.80
2017-09-20T06:35:40.152Z,48.50
2017-09-20T06:36:40.130Z,48.60
2017-09-20T06:37:40.089Z,49.30
2017-09-20T06:38:40.050Z,51.40
2017-09-20T06:39:40.008Z,47.50
2017-09-20T06:40:39.973Z,49.00
2017-09-20T06:41:39.943Z,49.20
2017-09-20T06:42:39.913Z,53.50
2017-09-20T06:43:39.870Z,47.80
2017-09-20T06:44:39.837Z,48.30
2017-09-20T06:45:39.823Z,50.80
2017-09-20T06:46:39.765Z,46.20
2017-09-20T06:47:39.733Z,42.30
2017-09-20T06:48:39.697Z,43.60
2017-09-20T06:49:39.663Z,44.80
2017-09-20T06:50:39.630Z,44.50
2017-09-20T06:51:39.591Z,40.00
2017-09-20T06:52:39.564Z,41.70
2017-09-20T06:53:39.530Z,46.70
2017-09-20T06:54:39.497Z,45.30
2017-09-20T06:55:39.457Z,42.30
2017-09-20T06:56:39.427Z,44.60
2017-09-20T06:57:39.392Z,42.90
2017-09-20T06:58:39.357Z,46.80
2017-09-20T06:59:39.336Z,42.20
2017-09-20T07:00:39.290Z,42.80
2017-09-20T07:01:39.253Z,44.40
2017-09-20T07:02:39.222Z,45.50
2017-09-20T07:03:39.195Z,43.30
2017-09-20T07:04:39.163Z,44.10
2017-09-20T07:05:39.123Z,45.70
2017-09-20T07:06:39.088Z,41.90
2017-09-20T07:07:39.062Z,40.70
2017-09-20T07:08:39.026Z,43.10
2017-09-20T07:09:38.996Z,41.40
2017-09-20T07:10:38.956Z,39.10
2017-09-20T07:11:38.932Z,42.60
2017-09-20T07:12:38.887Z,40.50
2017-09-20T07:13:38.851Z,39.40
2017-09-20T07:14:38.821Z,39.60
2017-09-20T07:15:38.786Z,38.70
2017-09-20T07:16:38.752Z,38.70
2017-09-20T07:17:38.751Z,38.50
2017-09-20T07:18:38.685Z,37.30
2017-09-20T07:19:38.653Z,38.70
2017-09-20T07:20:38.618Z,39.50
2017-09-20T07:21:38.585Z,37.40
2017-09-20T07:22:38.555Z,38.30
2017-09-20T07:23:38.523Z,36.40
2017-09-20T07:24:38.498Z,39.80
2017-09-20T07:25:38.450Z,38.10
2017-09-20T07:26:38.421Z,37.30
2017-09-20T07:27:38.382Z,36.70
2017-09-20T07:28:38.354Z,39.20
2017-09-20T07:29:38.315Z,36.50
2017-09-20T07:30:38.288Z,37.10
2017-09-20T07:31:38.248Z,40.90
2017-09-20T07:32:38.215Z,40.80
2017-09-20T07:33:38.185Z,41.20
2017-09-20T07:34:38.156Z,39.60
2017-09-20T07:35:38.120Z,38.80
2017-09-20T07:36:38.081Z,35.90
2017-09-20T07:37:38.048Z,38.30
2017-09-20T07:38:38.013Z,31.50
2017-09-20T07:39:37.978Z,36.20
2017-09-20T07:40:37.947Z,35.40
2017-09-20T07:41:37.909Z,35.30
2017-09-20T07:42:37.882Z,36.40
2017-09-20T07:43:37.845Z,37.70
2017-09-20T07:44:37.812Z,39.00
2017-09-20T07:45:37.776Z,34.10
2017-09-20T07:46:37.744Z,34.70
2017-09-20T07:47:37.708Z,34.10
2017-09-20T07:48:37.673Z,37.00
2017-09-20T07:49:37.664Z,34.30
2017-09-20T07:50:37.628Z,37.30
2017-09-20T07:51:37.591Z,33.10
2017-09-20T07:52:37.539Z,35.40
2017-09-20T07:53:37.504Z,35.10
2017-09-20T07:54:37.476Z,34.80
2017-09-20T07:55:37.439Z,36.70
2017-09-20T07:56:37.405Z,38.40
2017-09-20T07:57:37.376Z,32.80
2017-09-20T07:58:37.333Z,34.80
2017-09-20T07:59:37.314Z,36.10
2017-09-20T08:00:37.281Z,36.60
2017-09-20T08:01:37.255Z,31.70
2017-09-20T08:02:37.201Z,31.90
2017-09-20T08:03:37.168Z,35.00
2017-09-20T08:04:37.149Z,33.40
2017-09-20T08:05:37.109Z,32.20
2017-09-20T08:06:37.080Z,36.10
2017-09-20T08:07:37.034Z,34.30
2017-09-20T08:08:37.030Z,35.90
2017-09-20T08:09:36.985Z,32.40
2017-09-20T08:10:40.479Z,30.40
2017-09-20T08:11:36.898Z,34.30
2017-09-20T08:12:36.868Z,35.80
2017-09-20T08:13:36.833Z,33.90
2017-09-20T08:14:36.796Z,28.90
2017-09-20T08:15:36.762Z,32.30
2017-09-20T08:16:36.728Z,33.00
2017-09-20T08:17:36.695Z,33.00
2017-09-20T08:18:36.662Z,32.20
2017-09-20T08:19:36.637Z,30.30
2017-09-20T08:20:36.594Z,31.40
2017-09-20T08:21:36.559Z,27.40
2017-09-20T08:22:36.538Z,24.90
2017-09-20T08:23:36.489Z,27.90
2017-09-20T08:24:36.459Z,24.10
2017-09-20T08:25:36.424Z,23.30
2017-09-20T08:26:36.390Z,25.70
2017-09-20T08:27:36.355Z,25.60
2017-09-20T08:28:36.333Z,23.00
2017-09-20T08:29:36.291Z,24.70
2017-09-20T08:30:36.256Z,27.00
2017-09-20T08:31:36.230Z,30.50
2017-09-20T08:32:36.188Z,25.40
2017-09-20T08:33:36.162Z,30.00
2017-09-20T08:34:36.123Z,30.00
2017-09-20T08:35:36.096Z,26.90
2017-09-20T08:36:36.057Z,23.70
2017-09-20T08:37:36.023Z,25.90
2017-09-20T08:38:35.991Z,23.70
2017-09-20T08:39:35.953Z,23.30
2017-09-20T08:40:35.925Z,23.30
2017-09-20T08:41:35.887Z,24.90
2017-09-20T08:42:35.852Z,23.50
2017-09-20T08:43:35.820Z,28.90
2017-09-20T08:44:35.792Z,24.80
2017-09-20T08:45:35.755Z,27.40
2017-09-20T08:46:35.719Z,25.50
2017-09-20T08:47:35.687Z,27.20
2017-09-20T08:48:35.657Z,25.30
2017-09-20T08:49:35.620Z,22.70
2017-09-20T08:50:35.600Z,21.80
2017-09-20T08:51:35.555Z,20.40
2017-09-20T08:52:35.519Z,21.40
2017-09-20T08:53:35.486Z,18.30
2017-09-20T08:54:35.462Z,16.90
2017-09-20T08:55:35.430Z,19.60
2017-09-20T08:56:35.388Z,25.90
2017-09-20T08:57:35.361Z,20.70
2017-09-20T08:58:35.321Z,22.70
2017-09-20T08:59:35.287Z,20.40
2017-09-20T09:00:35.250Z,19.80
2017-09-20T09:01:35.231Z,18.30
2017-09-20T09:02:35.189Z,18.50
2017-09-20T09:03:35.158Z,17.30
2017-09-20T09:04:35.126Z,19.90
2017-09-20T09:05:35.095Z,18.50
2017-09-20T09:06:35.058Z,16.90
2017-09-20T09:07:35.019Z,17.00
2017-09-20T09:08:34.992Z,13.70
2017-09-20T09:09:34.956Z,16.20
2017-09-20T09:10:34.924Z,16.90
2017-09-20T09:11:34.898Z,16.30
2017-09-20T09:12:34.856Z,17.60
2017-09-20T09:13:34.831Z,17.90
2017-09-20T09:14:34.793Z,13.30
2017-09-20T09:15:34.758Z,16.30
2017-09-20T09:16:34.726Z,17.90
2017-09-20T09:17:34.692Z,14.80
2017-09-20T09:18:34.675Z,15.20
2017-09-20T09:19:34.640Z,15.90
2017-09-20T09:20:34.595Z,16.10
2017-09-20T09:21:34.564Z,14.40
2017-09-20T09:22:34.529Z,14.70
2017-09-20T09:23:34.497Z,16.70
2017-09-20T09:24:34.468Z,16.00
2017-09-20T09:25:34.434Z,16.30
2017-09-20T09:26:34.405Z,15.80
2017-09-20T09:27:34.378Z,18.20
2017-09-20T09:28:34.345Z,13.80
2017-09-20T09:29:34.305Z,14.10
2017-09-20T09:30:34.270Z,15.00
2017-09-20T09:31:34.239Z,13.40
2017-09-20T09:32:34.215Z,12.00
2017-09-20T09:33:34.177Z,16.70
2017-09-20T09:34:34.144Z,15.70
2017-09-20T09:35:34.153Z,16.00
2017-09-20T09:36:34.078Z,17.90
2017-09-20T09:37:34.050Z,16.60
2017-09-20T09:38:34.012Z,14.40
2017-09-20T09:39:33.989Z,13.90
2017-09-20T09:40:33.950Z,15.00
2017-09-20T09:41:33.916Z,14.90
2017-09-20T09:42:33.884Z,14.40
2017-09-20T09:43:33.855Z,13.20
2017-09-20T09:44:33.835Z,13.80
2017-09-20T09:45:33.787Z,13.30
2017-09-20T09:46:33.764Z,12.30
2017-09-20T09:47:33.724Z,10.40
2017-09-20T09:48:33.692Z,11.40
2017-09-20T09:49:33.665Z,12.10
2017-09-20T09:50:33.632Z,12.50
2017-09-20T09:51:33.594Z,13.50
2017-09-20T09:52:33.562Z,11.20
2017-09-20T09:53:33.531Z,10.00
2017-09-20T09:54:33.502Z,12.70
2017-09-20T09:55:33.472Z,11.20
2017-09-20T09:56:33.433Z,13.40
2017-09-20T09:57:33.404Z,14.20
2017-09-20T09:58:33.370Z,11.70
2017-09-20T09:59:33.333Z,11.30
2017-09-20T10:00:33.309Z,8.90
2017-09-20T10:01:33.275Z,10.10
2017-09-20T10:02:33.236Z,10.10
2017-09-20T10:03:33.200Z,8.30
2017-09-20T10:04:33.169Z,10.70
2017-09-20T10:05:33.139Z,12.90
2017-09-20T10:06:33.161Z,13.20
2017-09-20T10:07:33.077Z,10.40
2017-09-20T10:08:33.039Z,8.40
2017-09-20T10:09:33.020Z,10.80
2017-09-20T10:10:32.983Z,14.10
2017-09-20T10:11:32.947Z,9.60
2017-09-20T10:12:32.913Z,10.30
2017-09-20T10:13:32.877Z,12.20
2017-09-20T10:14:32.850Z,12.10
2017-09-20T10:15:32.817Z,11.80
2017-09-20T10:16:32.820Z,9.30
2017-09-20T10:17:32.800Z,8.90
2017-09-20T10:18:32.724Z,10.20
2017-09-20T10:19:32.691Z,9.90
2017-09-20T10:20:32.656Z,10.60
2017-09-20T10:21:32.625Z,12.30
2017-09-20T10:22:32.602Z,7.40
2017-09-20T10:23:32.551Z,11.90
2017-09-20T10:24:32.524Z,12.20
2017-09-20T10:25:32.489Z,11.40
2017-09-20T10:26:32.462Z,11.10
2017-09-20T10:27:32.443Z,8.20
2017-09-20T10:28:32.398Z,8.30
2017-09-20T10:29:32.384Z,9.20
2017-09-20T10:30:32.330Z,10.40
2017-09-20T10:31:32.298Z,9.40
2017-09-20T10:32:32.271Z,11.90
2017-09-20T10:33:32.233Z,12.80
2017-09-20T10:34:32.202Z,11.80
2017-09-20T10:35:32.171Z,9.20
2017-09-20T10:36:32.136Z,9.50
2017-09-20T10:37:32.105Z,11.00
2017-09-20T10:38:32.072Z,9.80
2017-09-20T10:39:32.041Z,10.90
2017-09-20T10:40:32.012Z,8.40
2017-09-20T10:41:31.977Z,9.20
2017-09-20T10:42:31.949Z,8.70
2017-09-20T10:43:31.917Z,8.90
2017-09-20T10:44:31.878Z,16.00
2017-09-20T10:45:31.851Z,10.90
2017-09-20T10:46:31.838Z,11.60
2017-09-20T10:47:31.788Z,10.80
2017-09-20T10:48:31.759Z,10.50
2017-09-20T10:49:31.722Z,13.70
2017-09-20T10:50:31.700Z,10.60
2017-09-20T10:51:31.700Z,11.70
2017-09-20T10:52:31.636Z,12.40
2017-09-20T10:53:32.534Z,16.60
2017-09-20T10:54:31.566Z,15.90
2017-09-20T10:55:31.535Z,9.40
2017-09-20T10:56:31.518Z,11.90
2017-09-20T10:57:31.472Z,10.90
2017-09-20T10:58:31.439Z,12.30
2017-09-20T10:59:31.417Z,11.10
2017-09-20T11:00:31.373Z,11.30
2017-09-20T11:01:31.341Z,12.00
2017-09-20T11:02:31.311Z,9.40
2017-09-20T11:03:31.298Z,10.40
2017-09-20T11:04:31.245Z,11.00
2017-09-20T11:05:31.238Z,10.60
2017-09-20T11:06:31.184Z,7.40
2017-09-20T11:07:31.155Z,12.40
2017-09-20T11:08:31.119Z,7.40
2017-09-20T11:09:31.090Z,11.00
2017-09-20T11:10:31.056Z,8.60
2017-09-20T11:11:31.023Z,8.40
2017-09-20T11:12:30.998Z,11.90
2017-09-20T11:13:30.979Z,13.40
2017-09-20T11:14:30.931Z,14.40
2017-09-20T11:15:30.905Z,8.90
2017-09-20T11:16:30.871Z,10.80
2017-09-20T11:17:30.838Z,10.50
2017-09-20T11:18:30.832Z,8.30
2017-09-20T11:19:30.772Z,9.10
2017-09-20T11:20:30.751Z,11.70
2017-09-20T11:21:30.719Z,7.60
2017-09-20T11:22:30.680Z,10.40
2017-09-20T11:23:30.651Z,12.50
2017-09-20T11:24:30.632Z,12.90
2017-09-20T11:25:30.588Z,9.70
2017-09-20T11:26:30.557Z,14.60
2017-09-20T11:27:30.527Z,11.90
2017-09-20T11:28:30.496Z,9.50
2017-09-20T11:29:30.463Z,8.30
2017-09-20T11:30:30.434Z,10.20
2017-09-20T11:31:30.410Z,7.90
2017-09-20T11:32:30.370Z,16.50
2017-09-20T11:33:30.341Z,9.60
2017-09-20T11:34:30.310Z,5.60
2017-09-20T11:35:30.282Z,10.90
2017-09-20T11:36:30.255Z,6.90
2017-09-20T11:37:30.215Z,6.90
2017-09-20T11:38:30.184Z,7.80
2017-09-20T11:39:30.150Z,9.70
2017-09-20T11:40:30.121Z,10.80
2017-09-20T11:41:30.088Z,9.70
2017-09-20T11:42:30.058Z,7.80
2017-09-20T11:43:30.027Z,5.90
2017-09-20T11:44:29.999Z,6.50
2017-09-20T11:45:29.962Z,4.30
2017-09-20T11:46:29.932Z,7.00
2017-09-20T11:47:29.902Z,5.40
2017-09-20T11:48:29.871Z,5.70
2017-09-20T11:49:29.837Z,7.00
2017-09-20T11:50:29.807Z,7.80
2017-09-20T11:51:29.775Z,6.20
2017-09-20T11:52:29.745Z,5.50
2017-09-20T11:53:29.711Z,5.40
2017-09-20T11:54:29.688Z,7.30
2017-09-20T11:55:29.648Z,5.80
2017-09-20T11:56:29.619Z,7.60
2017-09-20T11:57:29.604Z,7.20
2017-09-20T11:58:29.561Z,8.80
2017-09-20T11:59:29.528Z,4.40
2017-09-20T12:00:29.496Z,6.10
2017-09-20T12:01:29.461Z,5.70
2017-09-20T12:02:29.440Z,5.10
2017-09-20T12:03:29.405Z,11.20
2017-09-20T12:04:29.368Z,6.50
2017-09-20T12:05:29.337Z,6.50
2017-09-20T12:06:29.323Z,6.30
2017-09-20T12:07:29.280Z,6.60
2017-09-20T12:08:29.243Z,4.40
2017-09-20T12:09:29.218Z,4.10
2017-09-20T12:10:29.179Z,4.10
2017-09-20T12:11:29.146Z,4.90
2017-09-20T12:12:29.119Z,10.00
2017-09-20T12:13:29.082Z,7.70
2017-09-20T12:14:29.058Z,5.10
2017-09-20T12:15:29.028Z,8.00
2017-09-20T12:16:28.992Z,6.90
2017-09-20T12:17:28.964Z,4.90
2017-09-20T12:18:28.925Z,3.90
2017-09-20T12:19:28.921Z,5.20
2017-09-20T12:20:28.864Z,8.80
2017-09-20T12:21:28.838Z,5.60
2017-09-20T12:22:28.805Z,3.90
2017-09-20T12:23:28.768Z,7.20
2017-09-20T12:24:28.746Z,5.80
2017-09-20T12:25:28.714Z,5.70
2017-09-20T12:26:28.673Z,6.90
2017-09-20T12:27:28.642Z,8.60
2017-09-20T12:28:28.611Z,5.70
2017-09-20T12:29:28.591Z,5.60
2017-09-20T12:30:28.561Z,7.20
2017-09-20T12:31:28.533Z,6.50
2017-09-20T12:32:28.489Z,6.10
2017-09-20T12:33:28.475Z,7.90
2017-09-20T12:34:28.422Z,6.40
2017-09-20T12:35:28.409Z,5.80
2017-09-20T12:36:28.374Z,6.90
2017-09-20T12:37:28.326Z,6.60
2017-09-20T12:38:28.292Z,9.10
2017-09-20T12:39:28.261Z,10.10
2017-09-20T12:40:28.242Z,11.60
2017-09-20T12:41:28.203Z,7.70
2017-09-20T12:42:28.180Z,7.30
2017-09-20T12:43:28.140Z,7.10
2017-09-20T12:44:28.111Z,12.20
2017-09-20T12:45:28.073Z,7.70
2017-09-20T12:46:28.040Z,8.30
2017-09-20T12:47:28.012Z,9.50
2017-09-20T12:48:27.976Z,4.90
2017-09-20T12:49:27.953Z,8.60
2017-09-20T12:50:27.913Z,9.10
2017-09-20T12:51:27.889Z,6.80
2017-09-20T12:52:27.851Z,8.00
2017-09-20T12:53:27.816Z,10.50
2017-09-20T12:54:27.782Z,7.50
2017-09-20T12:55:27.764Z,7.40
2017-09-20T12:56:27.731Z,9.40